AirNav   Everest Fuels
 
 914 users online  

1AL7 Business Center of Alabama Heliport
Montgomery, Alabama, USA

GOING TO MONTGOMERY?


FAA INFORMATION EFFECTIVE 10 OCTOBER 2019

Location

FAA Identifier: 1AL7
Lat/Long: 32-22-40.3100N 086-17-45.4600W
32-22.671833N 086-17.757667W
32.3778639,-86.2959611
(estimated)
Elevation: 403 ft. / 123 m (estimated)
Variation: 01W (1990)
Time zone: UTC -5 (UTC -6 during Standard Time)
Zip code: 36104

Heliport Operations

Heliport use: Private use. Permission required prior to landing
Activation date: 03/1993
Control tower: no
ARTCC: ATLANTA CENTER
FSS: ANNISTON FLIGHT SERVICE STATION
Attendance: UNATNDD
Wind indicator: lighted
Segmented circle: no
Lights: ACTVT PERIMETER LGTS - 123.45.

Heliport Communications

WX ASOS at MGM (7 nm SW): PHONE 334-288-0445
WX AWOS-3P at 1A9 (12 nm W): 118.025 (334-358-0919)

Nearby radio navigation aids

VOR radial/distance  VOR name  Freq  Var
MGMr004/9.4MONTGOMERY VORTAC112.1003E
TGEr257/32.4TUSKEGEE VOR/DME117.3002E

 
NDB name  Hdg/Dist  Freq  Var  ID
MARRA071/11.624501WMG -- --.
BLOOD348/34.236504WTOI - --- ..

Heliport Services

Runway Information

Helipad H1

Dimensions: 50 x 50 ft. / 15 x 15 m
Surface: concrete
Runway edge lights: PERI
Latitude: 32-22.671833N
Longitude: 086-17.757667W
Elevation: 403.0 ft.
Traffic pattern: leftleft

Heliport Ownership and Management from official FAA records

Ownership: Privately-owned
Owner: LSREF2 OREO (DIRECT), LLC
110 OFFICE PARK DRIVE, SUITE 200
BIRMINGHAM, AL 35223-0000
Phone (205) 380-1076
Manager: STACEY WADSWORTH
110 OFFICE PARK DRIVE, SUITE 200
BIRMINGHAM, AL 35223
Phone (205) 380-1091

Additional Remarks

FOR CD CTC ATLANTA ARTCC AT 770-210-7692.

Instrument Procedures

There are no published instrument procedures at 1AL7.

Some nearby airports with instrument procedures:

KMXF - Maxwell Air Force Base (4 nm W)
KMGM - Montgomery Regional Airport (Dannelly Field) (7 nm SW)
08A - Wetumpka Municipal Airport (9 nm N)
1A9 - Prattville Airport - Grouby Field (12 nm W)
06A - Moton Field Municipal Airport (32 nm E)
 
Loc | Ops | Rwys | IFR | FBO | Links
Com | Nav | Svcs | Stats | Notes
Area around 1AL7 (Business Center of Alabama Heliport)
 
Road maps at: MapQuest Bing Google
 
Aerial photo
No photo
 
Sectional chart

 
Airport distance calculator
Flying to Business Center of Alabama Heliport? Find the distance to fly.

From to 1AL7

Sunrise and sunset
Times for 16-Oct-2019
 Local
(UTC-5)
 Zulu
(UTC)
Morning civil twilight06:2611:26
Sunrise06:5111:51
Sunset18:1123:11
Evening civil twilight18:3623:36

Current date and time
Zulu (UTC)  17-Oct-2019 01:52:18
Local (UTC-5)  16-Oct-2019 20:52:18
 
METAR
KMXF 
4nm W 
170056Z AUTO 00000KT 10SM CLR 16/12 A2996 RMK AO2 SLPNO T01630119
KMGM 
7nm SW 
170053Z 29006KT 10SM CLR 16/11 A2997 RMK AO2 SLP147 T01560111
K1A9 
12nm W 
170135Z AUTO 27003KT 10SM CLR 15/12 A2998 RMK AO2 T01460120
TAF
KMXF 
4nm W 
161900Z 1619/1801 32012KT 9999 FEW030 QNH2990INS BECMG 1623/1624 34006KT 9999 SKC QNH2993INS TX24/1620Z TN10/1712Z LAST NO AMDS AFT 1703 NEXT 1711
KMGM 
7nm SW 
162115Z 1621/1718 29012KT P6SM BKN250 FM170100 34005KT P6SM FEW060 FM170500 33003KT 4SM BR SCT020 FM171500 36005KT P6SM FEW120
NOTAMs
Click for the latest NOTAMs
NOTAMs are issued by the DoD/FAA and will open in a separate window not controlled by AirNav.

 

 
 

Would you like to see your business listed on this page?

 If your business provides an interesting product or service to pilots, flight crews, aircraft, or users of the Business Center of Alabama Heliport, you should consider listing it here.  To start the listing process, click on the button below
 
Add a business
 

Other Pages about Business Center of Alabama Heliport

Update a link
 
Copyright © AirNav, LLC. All rights reserved. Privacy Policy  Contact